sensor_id;sensor_type;location;lat;lon;timestamp;pressure;altitude;pressure_sealevel;temperature;humidity
76866;BME280;66647;52.124;5.416;2023-02-13T00:00:21;103935.00;;;6.68;79.78
76866;BME280;66647;52.124;5.416;2023-02-13T00:02:48;103931.44;;;6.68;79.91
76866;BME280;66647;52.124;5.416;2023-02-13T00:05:15;103927.88;;;6.67;80.17
76866;BME280;66647;52.124;5.416;2023-02-13T00:07:41;103931.44;;;6.68;79.67
76866;BME280;66647;52.124;5.416;2023-02-13T00:10:08;103924.09;;;6.68;80.03
76866;BME280;66647;52.124;5.416;2023-02-13T00:12:35;103931.22;;;6.69;80.10
76866;BME280;66647;52.124;5.416;2023-02-13T00:15:02;103926.59;;;6.70;80.49
76866;BME280;66647;52.124;5.416;2023-02-13T00:17:29;103928.50;;;6.69;79.97
76866;BME280;66647;52.124;5.416;2023-02-13T00:19:55;103920.75;;;6.66;79.62
76866;BME280;66647;52.124;5.416;2023-02-13T00:22:23;103922.44;;;6.67;80.53
76866;BME280;66647;52.124;5.416;2023-02-13T00:24:49;103920.75;;;6.66;80.72
76866;BME280;66647;52.124;5.416;2023-02-13T00:27:16;103912.34;;;6.68;79.75
76866;BME280;66647;52.124;5.416;2023-02-13T00:29:44;103910.91;;;6.65;80.34
76866;BME280;66647;52.124;5.416;2023-02-13T00:32:13;103921.19;;;6.63;80.50
76866;BME280;66647;52.124;5.416;2023-02-13T00:34:40;103918.69;;;6.62;80.53
76866;BME280;66647;52.124;5.416;2023-02-13T00:37:06;103908.63;;;6.62;80.92
76866;BME280;66647;52.124;5.416;2023-02-13T00:39:32;103908.63;;;6.62;80.27
76866;BME280;66647;52.124;5.416;2023-02-13T00:41:59;103912.41;;;6.61;81.08
76866;BME280;66647;52.124;5.416;2023-02-13T00:44:25;103905.91;;;6.62;80.63
76866;BME280;66647;52.124;5.416;2023-02-13T00:46:52;103910.75;;;6.60;80.70
76866;BME280;66647;52.124;5.416;2023-02-13T00:49:19;103909.06;;;6.59;80.44
76866;BME280;66647;52.124;5.416;2023-02-13T00:51:49;103904.69;;;6.58;80.55
76866;BME280;66647;52.124;5.416;2023-02-13T00:54:15;103908.22;;;6.59;80.84
76866;BME280;66647;52.124;5.416;2023-02-13T00:56:42;103902.56;;;6.60;81.14
76866;BME280;66647;52.124;5.416;2023-02-13T00:59:11;103899.84;;;6.60;81.65
76866;BME280;66647;52.124;5.416;2023-02-13T01:01:37;103903.16;;;6.62;81.00
76866;BME280;66647;52.124;5.416;2023-02-13T01:04:05;103895.00;;;6.62;80.89
76866;BME280;66647;52.124;5.416;2023-02-13T01:06:31;103894.38;;;6.60;81.35
76866;BME280;66647;52.124;5.416;2023-02-13T01:08:58;103897.34;;;6.59;81.28
76866;BME280;66647;52.124;5.416;2023-02-13T01:11:28;103908.69;;;6.56;80.74
76866;BME280;66647;52.124;5.416;2023-02-13T01:13:54;103905.94;;;6.56;80.77
76866;BME280;66647;52.124;5.416;2023-02-13T01:16:21;103905.34;;;6.54;81.07
76866;BME280;66647;52.124;5.416;2023-02-13T01:18:48;103908.28;;;6.52;80.97
76866;BME280;66647;52.124;5.416;2023-02-13T01:21:20;103905.78;;;6.51;81.81
76866;BME280;66647;52.124;5.416;2023-02-13T01:23:51;103902.47;;;6.49;81.19
76866;BME280;66647;52.124;5.416;2023-02-13T01:26:21;103903.91;;;6.51;81.47
76866;BME280;66647;52.124;5.416;2023-02-13T01:28:52;103906.63;;;6.51;81.49
76866;BME280;66647;52.124;5.416;2023-02-13T01:31:20;103903.31;;;6.49;81.93
76866;BME280;66647;52.124;5.416;2023-02-13T01:33:49;103899.34;;;6.45;81.61
76866;BME280;66647;52.124;5.416;2023-02-13T01:36:23;103899.13;;;6.47;81.25
76866;BME280;66647;52.124;5.416;2023-02-13T01:39:10;103887.41;;;6.46;81.19
76866;BME280;66647;52.124;5.416;2023-02-13T01:41:38;103898.31;;;6.46;81.29
76866;BME280;66647;52.124;5.416;2023-02-13T01:47:09;103890.13;;;6.46;81.27
76866;BME280;66647;52.124;5.416;2023-02-13T01:49:38;103889.50;;;6.44;80.92
76866;BME280;66647;52.124;5.416;2023-02-13T01:52:08;103884.06;;;6.44;81.79
76866;BME280;66647;52.124;5.416;2023-02-13T01:54:35;103882.41;;;6.43;81.77
76866;BME280;66647;52.124;5.416;2023-02-13T01:57:15;103885.13;;;6.43;81.32
76866;BME280;66647;52.124;5.416;2023-02-13T01:59:48;103883.66;;;6.40;81.23
76866;BME280;66647;52.124;5.416;2023-02-13T02:02:18;103883.44;;;6.42;80.92
76866;BME280;66647;52.124;5.416;2023-02-13T02:04:46;103891.00;;;6.40;81.37
76866;BME280;66647;52.124;5.416;2023-02-13T02:07:23;103883.91;;;6.39;81.27
76866;BME280;66647;52.124;5.416;2023-02-13T02:10:20;103883.66;;;6.40;81.28
76866;BME280;66647;52.124;5.416;2023-02-13T02:13:05;103886.63;;;6.39;80.84
76866;BME280;66647;52.124;5.416;2023-02-13T02:15:33;103879.28;;;6.39;81.52
76866;BME280;66647;52.124;5.416;2023-02-13T02:18:00;103881.16;;;6.39;81.03
76866;BME280;66647;52.124;5.416;2023-02-13T02:29:16;103874.50;;;6.35;81.96
76866;BME280;66647;52.124;5.416;2023-02-13T02:31:43;103874.03;;;6.38;82.29
76866;BME280;66647;52.124;5.416;2023-02-13T02:37:23;103877.38;;;6.40;82.17
76866;BME280;66647;52.124;5.416;2023-02-13T02:45:47;103872.81;;;6.34;81.73
76866;BME280;66647;52.124;5.416;2023-02-13T02:54:31;103865.88;;;6.38;81.14
76866;BME280;66647;52.124;5.416;2023-02-13T02:57:29;103859.81;;;6.36;81.94
76866;BME280;66647;52.124;5.416;2023-02-13T03:00:19;103867.16;;;6.35;82.36
76866;BME280;66647;52.124;5.416;2023-02-13T03:03:18;103871.59;;;6.30;82.19
76866;BME280;66647;52.124;5.416;2023-02-13T03:06:14;103866.16;;;6.30;81.98
76866;BME280;66647;52.124;5.416;2023-02-13T03:08:45;103859.63;;;6.31;82.01
76866;BME280;66647;52.124;5.416;2023-02-13T03:11:38;103865.31;;;6.29;82.51
76866;BME280;66647;52.124;5.416;2023-02-13T03:14:25;103864.03;;;6.32;82.33
76866;BME280;66647;52.124;5.416;2023-02-13T03:16:53;103858.59;;;6.32;82.29
76866;BME280;66647;52.124;5.416;2023-02-13T03:20:02;103854.56;;;6.34;83.05
76866;BME280;66647;52.124;5.416;2023-02-13T03:29:42;103871.16;;;6.33;81.94
76866;BME280;66647;52.124;5.416;2023-02-13T03:32:37;103868.88;;;6.30;82.62
76866;BME280;66647;52.124;5.416;2023-02-13T03:35:33;103874.31;;;6.30;82.47
76866;BME280;66647;52.124;5.416;2023-02-13T03:38:45;103867.19;;;6.29;82.35
76866;BME280;66647;52.124;5.416;2023-02-13T03:41:18;103870.16;;;6.27;82.47
76866;BME280;66647;52.124;5.416;2023-02-13T03:44:13;103865.69;;;6.33;82.96
76866;BME280;66647;52.124;5.416;2023-02-13T03:46:44;103875.75;;;6.32;82.42
76866;BME280;66647;52.124;5.416;2023-02-13T03:49:22;103872.81;;;6.34;82.84
76866;BME280;66647;52.124;5.416;2023-02-13T03:55:15;103874.09;;;6.31;82.39
76866;BME280;66647;52.124;5.416;2023-02-13T03:58:11;103872.22;;;6.32;82.95
76866;BME280;66647;52.124;5.416;2023-02-13T04:01:00;103870.09;;;6.34;83.07
76866;BME280;66647;52.124;5.416;2023-02-13T04:03:34;103870.94;;;6.34;82.03
76866;BME280;66647;52.124;5.416;2023-02-13T04:06:08;103858.13;;;6.35;82.72
76866;BME280;66647;52.124;5.416;2023-02-13T04:08:39;103851.47;;;6.31;82.46
76866;BME280;66647;52.124;5.416;2023-02-13T04:13:49;103862.38;;;6.31;82.51
76866;BME280;66647;52.124;5.416;2023-02-13T04:16:21;103861.31;;;6.32;82.06
76866;BME280;66647;52.124;5.416;2023-02-13T04:18:50;103861.53;;;6.30;82.49
76866;BME280;66647;52.124;5.416;2023-02-13T04:21:18;103857.97;;;6.30;82.37
76866;BME280;66647;52.124;5.416;2023-02-13T04:23:44;103861.97;;;6.27;82.34
76866;BME280;66647;52.124;5.416;2023-02-13T04:26:16;103864.69;;;6.27;81.49
76866;BME280;66647;52.124;5.416;2023-02-13T04:28:43;103863.88;;;6.27;81.88
76866;BME280;66647;52.124;5.416;2023-02-13T04:31:13;103863.88;;;6.27;82.31
76866;BME280;66647;52.124;5.416;2023-02-13T04:33:40;103861.13;;;6.27;81.87
76866;BME280;66647;52.124;5.416;2023-02-13T04:36:07;103855.91;;;6.25;82.27
76866;BME280;66647;52.124;5.416;2023-02-13T04:38:33;103859.91;;;6.23;82.34
76866;BME280;66647;52.124;5.416;2023-02-13T04:41:01;103866.19;;;6.23;81.93
76866;BME280;66647;52.124;5.416;2023-02-13T04:43:28;103858.63;;;6.25;81.81
76866;BME280;66647;52.124;5.416;2023-02-13T04:45:54;103856.75;;;6.26;82.35
76866;BME280;66647;52.124;5.416;2023-02-13T04:48:21;103859.69;;;6.24;82.20
76866;BME280;66647;52.124;5.416;2023-02-13T04:50:48;103851.97;;;6.21;82.55
76866;BME280;66647;52.124;5.416;2023-02-13T04:53:14;103856.78;;;6.19;82.02
76866;BME280;66647;52.124;5.416;2023-02-13T04:55:40;103854.91;;;6.20;82.13
76866;BME280;66647;52.124;5.416;2023-02-13T04:58:15;103850.06;;;6.22;82.60
76866;BME280;66647;52.124;5.416;2023-02-13T05:00:42;103846.50;;;6.21;82.14
76866;BME280;66647;52.124;5.416;2023-02-13T05:03:11;103848.41;;;6.21;82.34
76866;BME280;66647;52.124;5.416;2023-02-13T05:05:38;103832.25;;;6.19;82.67
76866;BME280;66647;52.124;5.416;2023-02-13T05:08:06;103830.38;;;6.20;82.89
76866;BME280;66647;52.124;5.416;2023-02-13T05:10:33;103828.13;;;6.17;82.60
76866;BME280;66647;52.124;5.416;2023-02-13T05:13:01;103835.22;;;6.18;82.73
76866;BME280;66647;52.124;5.416;2023-02-13T05:15:28;103829.75;;;6.18;82.31
76866;BME280;66647;52.124;5.416;2023-02-13T05:17:55;103828.13;;;6.17;82.25
76866;BME280;66647;52.124;5.416;2023-02-13T05:20:21;103834.41;;;6.17;82.70
76866;BME280;66647;52.124;5.416;2023-02-13T05:22:50;103837.34;;;6.16;83.27
76866;BME280;66647;52.124;5.416;2023-02-13T05:25:38;103822.28;;;6.13;82.83
76866;BME280;66647;52.124;5.416;2023-02-13T05:28:07;103822.06;;;6.15;82.87
76866;BME280;66647;52.124;5.416;2023-02-13T05:30:52;103816.63;;;6.15;82.51
76866;BME280;66647;52.124;5.416;2023-02-13T05:33:19;103830.25;;;6.15;82.76
76866;BME280;66647;52.124;5.416;2023-02-13T05:35:46;103829.41;;;6.14;83.25
76866;BME280;66647;52.124;5.416;2023-02-13T05:38:12;103825.84;;;6.14;83.05
76866;BME280;66647;52.124;5.416;2023-02-13T05:40:39;103833.19;;;6.13;83.25
76866;BME280;66647;52.124;5.416;2023-02-13T05:43:05;103824.19;;;6.13;82.92
76866;BME280;66647;52.124;5.416;2023-02-13T05:45:32;103833.19;;;6.13;83.40
76866;BME280;66647;52.124;5.416;2023-02-13T05:48:00;103830.69;;;6.12;83.30
76866;BME280;66647;52.124;5.416;2023-02-13T05:50:26;103837.78;;;6.13;83.43
76866;BME280;66647;52.124;5.416;2023-02-13T05:52:55;103831.28;;;6.14;83.63
76866;BME280;66647;52.124;5.416;2023-02-13T05:55:22;103834.03;;;6.14;83.64
76866;BME280;66647;52.124;5.416;2023-02-13T05:57:49;103825.00;;;6.13;83.52
76866;BME280;66647;52.124;5.416;2023-02-13T06:00:16;103827.50;;;6.15;83.75
76866;BME280;66647;52.124;5.416;2023-02-13T06:02:42;103824.78;;;6.15;83.52
76866;BME280;66647;52.124;5.416;2023-02-13T06:05:09;103820.41;;;6.14;84.21
76866;BME280;66647;52.124;5.416;2023-02-13T06:07:38;103827.72;;;6.13;83.71
76866;BME280;66647;52.124;5.416;2023-02-13T06:10:05;103827.97;;;6.12;84.31
76866;BME280;66647;52.124;5.416;2023-02-13T06:12:32;103829.41;;;6.14;83.82
76866;BME280;66647;52.124;5.416;2023-02-13T06:14:58;103826.47;;;6.16;84.21
76866;BME280;66647;52.124;5.416;2023-02-13T06:17:27;103824.78;;;6.15;84.75
76866;BME280;66647;52.124;5.416;2023-02-13T06:19:57;103828.13;;;6.17;84.23
76866;BME280;66647;52.124;5.416;2023-02-13T06:22:24;103824.94;;;6.20;84.61
76866;BME280;66647;52.124;5.416;2023-02-13T06:24:50;103829.75;;;6.18;84.25
76866;BME280;66647;52.124;5.416;2023-02-13T06:27:17;103825.75;;;6.20;83.98
76866;BME280;66647;52.124;5.416;2023-02-13T06:29:43;103830.38;;;6.20;84.74
76866;BME280;66647;52.124;5.416;2023-02-13T06:32:11;103827.66;;;6.20;84.39
76866;BME280;66647;52.124;5.416;2023-02-13T06:34:39;103828.97;;;6.17;84.56
76866;BME280;66647;52.124;5.416;2023-02-13T06:37:08;103840.66;;;6.18;84.61
76866;BME280;66647;52.124;5.416;2023-02-13T06:39:36;103833.94;;;6.20;83.91
76866;BME280;66647;52.124;5.416;2023-02-13T06:42:02;103842.34;;;6.19;84.94
76866;BME280;66647;52.124;5.416;2023-02-13T06:44:31;103836.44;;;6.22;84.83
76866;BME280;66647;52.124;5.416;2023-02-13T06:46:58;103839.16;;;6.22;84.28
76866;BME280;66647;52.124;5.416;2023-02-13T06:49:24;103831.38;;;6.25;84.08
76866;BME280;66647;52.124;5.416;2023-02-13T06:51:52;103837.66;;;6.26;85.19
76866;BME280;66647;52.124;5.416;2023-02-13T06:54:20;103845.00;;;6.25;84.71
76866;BME280;66647;52.124;5.416;2023-02-13T06:57:00;103837.66;;;6.26;84.32
76866;BME280;66647;52.124;5.416;2023-02-13T06:59:26;103839.34;;;6.27;84.57
76866;BME280;66647;52.124;5.416;2023-02-13T07:01:53;103835.38;;;6.23;84.08
76866;BME280;66647;52.124;5.416;2023-02-13T07:04:19;103851.50;;;6.24;84.55
76866;BME280;66647;52.124;5.416;2023-02-13T07:06:46;103839.78;;;6.24;84.49
76866;BME280;66647;52.124;5.416;2023-02-13T07:09:12;103846.91;;;6.25;84.39
76866;BME280;66647;52.124;5.416;2023-02-13T07:11:39;103849.84;;;6.23;84.72
76866;BME280;66647;52.124;5.416;2023-02-13T07:14:06;103855.28;;;6.23;85.30
76866;BME280;66647;52.124;5.416;2023-02-13T07:16:33;103856.97;;;6.24;85.08
76866;BME280;66647;52.124;5.416;2023-02-13T07:18:59;103859.47;;;6.26;84.60
76866;BME280;66647;52.124;5.416;2023-02-13T07:21:26;103864.09;;;6.25;84.74
76866;BME280;66647;52.124;5.416;2023-02-13T07:23:53;103861.97;;;6.27;85.19
76866;BME280;66647;52.124;5.416;2023-02-13T07:26:20;103859.03;;;6.29;85.04
76866;BME280;66647;52.124;5.416;2023-02-13T07:28:46;103854.19;;;6.31;84.80
76866;BME280;66647;52.124;5.416;2023-02-13T07:31:13;103853.34;;;6.30;84.99
76866;BME280;66647;52.124;5.416;2023-02-13T07:33:39;103847.06;;;6.30;84.56
76866;BME280;66647;52.124;5.416;2023-02-13T07:36:06;103846.00;;;6.31;84.59
76866;BME280;66647;52.124;5.416;2023-02-13T07:38:33;103844.94;;;6.32;84.93
76866;BME280;66647;52.124;5.416;2023-02-13T07:41:01;103851.00;;;6.34;85.26
76866;BME280;66647;52.124;5.416;2023-02-13T07:43:29;103844.72;;;6.33;84.98
76866;BME280;66647;52.124;5.416;2023-02-13T07:46:00;103851.63;;;6.36;85.12
76866;BME280;66647;52.124;5.416;2023-02-13T07:48:28;103845.97;;;6.37;85.25
76866;BME280;66647;52.124;5.416;2023-02-13T07:51:05;103850.97;;;6.40;85.03
76866;BME280;66647;52.124;5.416;2023-02-13T07:53:32;103859.53;;;6.44;84.72
76866;BME280;66647;52.124;5.416;2023-02-13T07:56:05;103860.16;;;6.46;84.99
76866;BME280;66647;52.124;5.416;2023-02-13T07:58:32;103864.31;;;6.49;85.54
76866;BME280;66647;52.124;5.416;2023-02-13T08:01:08;103867.41;;;6.52;85.17
76866;BME280;66647;52.124;5.416;2023-02-13T08:03:37;103867.78;;;6.56;85.51
76866;BME280;66647;52.124;5.416;2023-02-13T08:06:04;103871.97;;;6.58;84.97
76866;BME280;66647;52.124;5.416;2023-02-13T08:08:31;103869.41;;;6.63;85.03
76866;BME280;66647;52.124;5.416;2023-02-13T08:11:18;103877.75;;;6.68;85.39
76866;BME280;66647;52.124;5.416;2023-02-13T08:14:10;103878.75;;;6.74;85.17
76866;BME280;66647;52.124;5.416;2023-02-13T08:16:37;103882.91;;;6.77;85.16
76866;BME280;66647;52.124;5.416;2023-02-13T08:19:07;103890.66;;;6.80;84.93
76866;BME280;66647;52.124;5.416;2023-02-13T08:21:33;103896.22;;;6.85;85.05
76866;BME280;66647;52.124;5.416;2023-02-13T08:24:00;103885.69;;;6.88;84.97
76866;BME280;66647;52.124;5.416;2023-02-13T08:26:30;103891.53;;;6.92;84.62
76866;BME280;66647;52.124;5.416;2023-02-13T08:28:57;103888.75;;;6.98;84.22
76866;BME280;66647;52.124;5.416;2023-02-13T08:31:24;103884.28;;;7.04;84.59
76866;BME280;66647;52.124;5.416;2023-02-13T08:33:51;103885.28;;;7.10;84.09
76866;BME280;66647;52.124;5.416;2023-02-13T08:36:17;103887.31;;;7.14;83.88
76866;BME280;66647;52.124;5.416;2023-02-13T08:38:48;103891.25;;;7.18;84.10
76866;BME280;66647;52.124;5.416;2023-02-13T08:41:15;103888.06;;;7.21;83.72
76866;BME280;66647;52.124;5.416;2023-02-13T08:43:45;103883.19;;;7.23;83.75
76866;BME280;66647;52.124;5.416;2023-02-13T08:46:27;103876.59;;;7.31;84.38
76866;BME280;66647;52.124;5.416;2023-02-13T08:48:59;103887.22;;;7.39;83.93
76866;BME280;66647;52.124;5.416;2023-02-13T08:51:28;103891.06;;;7.50;83.55
76866;BME280;66647;52.124;5.416;2023-02-13T08:53:54;103887.09;;;7.64;83.91
76866;BME280;66647;52.124;5.416;2023-02-13T08:56:21;103885.50;;;7.86;82.20
76866;BME280;66647;52.124;5.416;2023-02-13T08:58:48;103881.38;;;7.95;82.50
76866;BME280;66647;52.124;5.416;2023-02-13T09:01:15;103885.69;;;8.15;81.48
76866;BME280;66647;52.124;5.416;2023-02-13T09:03:42;103887.31;;;8.34;80.06
76866;BME280;66647;52.124;5.416;2023-02-13T09:06:08;103886.13;;;8.41;80.34
76866;BME280;66647;52.124;5.416;2023-02-13T09:08:37;103886.63;;;8.62;79.68
76866;BME280;66647;52.124;5.416;2023-02-13T09:11:04;103880.75;;;9.05;79.33
76866;BME280;66647;52.124;5.416;2023-02-13T09:13:34;103885.34;;;9.56;74.97
76866;BME280;66647;52.124;5.416;2023-02-13T09:16:05;103886.19;;;9.17;77.04
76866;BME280;66647;52.124;5.416;2023-02-13T09:18:33;103881.00;;;8.92;76.84
76866;BME280;66647;52.124;5.416;2023-02-13T09:21:05;103884.69;;;8.86;77.72
76866;BME280;66647;52.124;5.416;2023-02-13T09:23:34;103888.72;;;8.83;78.18
76866;BME280;66647;52.124;5.416;2023-02-13T09:26:04;103887.66;;;8.96;77.87
76866;BME280;66647;52.124;5.416;2023-02-13T09:28:33;103888.13;;;8.93;77.56
76866;BME280;66647;52.124;5.416;2023-02-13T09:31:18;103883.84;;;8.97;77.84
76866;BME280;66647;52.124;5.416;2023-02-13T09:33:46;103882.66;;;8.93;77.75
76866;BME280;66647;52.124;5.416;2023-02-13T09:36:16;103885.19;;;9.34;76.82
76866;BME280;66647;52.124;5.416;2023-02-13T09:38:46;103892.81;;;9.32;76.60
76866;BME280;66647;52.124;5.416;2023-02-13T09:43:50;103876.69;;;9.48;76.26
76866;BME280;66647;52.124;5.416;2023-02-13T09:46:38;103880.47;;;10.03;75.86
76866;BME280;66647;52.124;5.416;2023-02-13T09:49:16;103872.00;;;11.37;72.10
76866;BME280;66647;52.124;5.416;2023-02-13T09:51:50;103873.75;;;12.24;67.75
76866;BME280;66647;52.124;5.416;2023-02-13T09:54:20;103871.09;;;11.54;68.36
76866;BME280;66647;52.124;5.416;2023-02-13T09:56:58;103879.91;;;11.77;68.37
76866;BME280;66647;52.124;5.416;2023-02-13T10:11:03;103868.06;;;13.35;62.73
76866;BME280;66647;52.124;5.416;2023-02-13T10:14:00;103878.81;;;13.32;62.35
76866;BME280;66647;52.124;5.416;2023-02-13T10:16:37;103880.63;;;13.11;63.24
76866;BME280;66647;52.124;5.416;2023-02-13T10:22:18;103869.84;;;14.58;57.56
76866;BME280;66647;52.124;5.416;2023-02-13T10:27:48;103874.50;;;14.78;56.62
76866;BME280;66647;52.124;5.416;2023-02-13T10:30:45;103867.47;;;15.16;56.87
76866;BME280;66647;52.124;5.416;2023-02-13T10:33:24;103872.06;;;15.85;54.64
76866;BME280;66647;52.124;5.416;2023-02-13T10:36:15;103867.19;;;15.67;54.87
76866;BME280;66647;52.124;5.416;2023-02-13T10:38:55;103863.91;;;15.99;54.31
76866;BME280;66647;52.124;5.416;2023-02-13T10:44:20;103859.19;;;15.65;53.89
76866;BME280;66647;52.124;5.416;2023-02-13T10:54:56;103858.88;;;16.93;50.39
76866;BME280;66647;52.124;5.416;2023-02-13T11:00:59;103852.53;;;16.05;52.35
76866;BME280;66647;52.124;5.416;2023-02-13T11:03:28;103852.28;;;16.02;52.62
76866;BME280;66647;52.124;5.416;2023-02-13T11:05:59;103842.16;;;16.21;50.92
76866;BME280;66647;52.124;5.416;2023-02-13T11:08:33;103853.59;;;16.09;51.19
76866;BME280;66647;52.124;5.416;2023-02-13T11:11:41;103839.03;;;16.28;53.10
76866;BME280;66647;52.124;5.416;2023-02-13T11:14:27;103844.19;;;17.54;50.69
76866;BME280;66647;52.124;5.416;2023-02-13T11:17:21;103832.91;;;17.26;50.02
76866;BME280;66647;52.124;5.416;2023-02-13T11:19:57;103835.91;;;17.30;49.24
76866;BME280;66647;52.124;5.416;2023-02-13T11:22:37;103832.19;;;17.39;48.99
76866;BME280;66647;52.124;5.416;2023-02-13T11:28:09;103824.72;;;16.97;50.97
76866;BME280;66647;52.124;5.416;2023-02-13T11:33:52;103819.66;;;16.57;50.89
76866;BME280;66647;52.124;5.416;2023-02-13T11:43:05;103812.41;;;16.32;49.81
76866;BME280;66647;52.124;5.416;2023-02-13T11:45:32;103817.75;;;16.52;49.71
76866;BME280;66647;52.124;5.416;2023-02-13T11:47:59;103802.31;;;16.70;49.50
76866;BME280;66647;52.124;5.416;2023-02-13T11:50:33;103805.66;;;17.15;50.76
76866;BME280;66647;52.124;5.416;2023-02-13T11:53:06;103801.66;;;17.58;47.24
76866;BME280;66647;52.124;5.416;2023-02-13T11:55:38;103802.19;;;17.41;48.29
76866;BME280;66647;52.124;5.416;2023-02-13T12:00:39;103795.22;;;17.25;48.26
76866;BME280;66647;52.124;5.416;2023-02-13T12:08:29;103787.19;;;17.42;46.79
76866;BME280;66647;52.124;5.416;2023-02-13T12:10:57;103786.66;;;17.03;47.70
76866;BME280;66647;52.124;5.416;2023-02-13T12:13:36;103781.03;;;17.27;47.99
76866;BME280;66647;52.124;5.416;2023-02-13T12:16:15;103778.72;;;17.34;47.50
76866;BME280;66647;52.124;5.416;2023-02-13T12:18:50;103777.75;;;16.87;48.42
76866;BME280;66647;52.124;5.416;2023-02-13T12:26:41;103773.41;;;17.37;48.78
76866;BME280;66647;52.124;5.416;2023-02-13T12:29:47;103770.91;;;17.55;48.26
76866;BME280;66647;52.124;5.416;2023-02-13T12:32:27;103774.59;;;17.31;48.42
76866;BME280;66647;52.124;5.416;2023-02-13T12:35:13;103777.97;;;17.66;48.01
76866;BME280;66647;52.124;5.416;2023-02-13T12:40:58;103772.16;;;17.62;47.05
76866;BME280;66647;52.124;5.416;2023-02-13T12:44:30;103770.13;;;16.74;50.44
76866;BME280;66647;52.124;5.416;2023-02-13T12:57:32;103768.66;;;14.83;53.98
76866;BME280;66647;52.124;5.416;2023-02-13T13:02:52;103767.13;;;14.51;55.78
76866;BME280;66647;52.124;5.416;2023-02-13T13:08:54;103748.38;;;14.33;56.66
76866;BME280;66647;52.124;5.416;2023-02-13T13:27:31;103725.25;;;13.98;57.70
76866;BME280;66647;52.124;5.416;2023-02-13T13:32:40;103721.44;;;13.94;57.51
76866;BME280;66647;52.124;5.416;2023-02-13T13:35:17;103709.25;;;14.00;57.77
76866;BME280;66647;52.124;5.416;2023-02-13T13:37:59;103710.13;;;13.86;57.59
76866;BME280;66647;52.124;5.416;2023-02-13T13:40:57;103706.81;;;13.84;58.25
76866;BME280;66647;52.124;5.416;2023-02-13T13:46:27;103705.97;;;13.83;57.60
76866;BME280;66647;52.124;5.416;2023-02-13T13:49:21;103705.97;;;13.88;58.25
76866;BME280;66647;52.124;5.416;2023-02-13T13:51:53;103694.13;;;13.83;57.41
76866;BME280;66647;52.124;5.416;2023-02-13T13:54:34;103698.28;;;13.60;58.45
76866;BME280;66647;52.124;5.416;2023-02-13T14:07:40;103692.22;;;13.48;59.70
76866;BME280;66647;52.124;5.416;2023-02-13T14:26:24;103677.31;;;13.18;60.85
76866;BME280;66647;52.124;5.416;2023-02-13T14:28:58;103673.69;;;13.07;60.99
76866;BME280;66647;52.124;5.416;2023-02-13T14:31:34;103684.16;;;12.95;61.09
76866;BME280;66647;52.124;5.416;2023-02-13T14:34:18;103683.00;;;12.81;61.03
76866;BME280;66647;52.124;5.416;2023-02-13T14:42:50;103676.38;;;12.67;61.93
76866;BME280;66647;52.124;5.416;2023-02-13T14:45:25;103678.81;;;12.68;62.07
76866;BME280;66647;52.124;5.416;2023-02-13T14:47:56;103675.25;;;12.63;62.63
76866;BME280;66647;52.124;5.416;2023-02-13T14:50:43;103668.34;;;12.55;62.71
76866;BME280;66647;52.124;5.416;2023-02-13T14:53:44;103664.78;;;12.60;63.42
76866;BME280;66647;52.124;5.416;2023-02-13T14:56:14;103665.03;;;12.53;62.87
76866;BME280;66647;52.124;5.416;2023-02-13T14:58:57;103663.38;;;12.52;63.31
76866;BME280;66647;52.124;5.416;2023-02-13T15:01:33;103665.78;;;12.38;63.01
76866;BME280;66647;52.124;5.416;2023-02-13T15:04:24;103669.06;;;12.35;63.87
76866;BME280;66647;52.124;5.416;2023-02-13T15:06:54;103661.13;;;12.34;63.53
76866;BME280;66647;52.124;5.416;2023-02-13T15:09:33;103662.22;;;12.33;63.61
76866;BME280;66647;52.124;5.416;2023-02-13T15:12:00;103669.38;;;12.39;64.05
76866;BME280;66647;52.124;5.416;2023-02-13T15:14:34;103664.97;;;12.33;64.03
76866;BME280;66647;52.124;5.416;2023-02-13T15:17:17;103672.09;;;12.29;63.77
76866;BME280;66647;52.124;5.416;2023-02-13T15:19:47;103661.06;;;12.24;64.68
76866;BME280;66647;52.124;5.416;2023-02-13T15:22:29;103662.66;;;12.15;64.65
76866;BME280;66647;52.124;5.416;2023-02-13T15:24:57;103666.25;;;12.15;64.78
76866;BME280;66647;52.124;5.416;2023-02-13T15:27:29;103665.94;;;12.11;65.55
76866;BME280;66647;52.124;5.416;2023-02-13T15:32:42;103657.66;;;12.01;65.79
76866;BME280;66647;52.124;5.416;2023-02-13T15:35:31;103653.75;;;11.92;65.86
76866;BME280;66647;52.124;5.416;2023-02-13T15:38:37;103654.84;;;11.91;66.16
76866;BME280;66647;52.124;5.416;2023-02-13T15:41:22;103652.63;;;11.88;66.28
76866;BME280;66647;52.124;5.416;2023-02-13T15:47:33;103658.53;;;11.75;66.51
76866;BME280;66647;52.124;5.416;2023-02-13T15:50:18;103656.06;;;11.73;66.75
76866;BME280;66647;52.124;5.416;2023-02-13T15:52:55;103649.16;;;11.71;67.32
76866;BME280;66647;52.124;5.416;2023-02-13T15:55:26;103643.66;;;11.66;66.94
76866;BME280;66647;52.124;5.416;2023-02-13T15:57:57;103642.75;;;11.55;67.37
76866;BME280;66647;52.124;5.416;2023-02-13T16:00:32;103638.88;;;11.51;68.01
76866;BME280;66647;52.124;5.416;2023-02-13T16:06:39;103649.50;;;11.42;67.86
76866;BME280;66647;52.124;5.416;2023-02-13T16:09:46;103641.78;;;11.39;67.92
76866;BME280;66647;52.124;5.416;2023-02-13T16:12:34;103647.53;;;11.38;68.04
76866;BME280;66647;52.124;5.416;2023-02-13T16:15:29;103645.59;;;11.33;68.42
76866;BME280;66647;52.124;5.416;2023-02-13T16:17:59;103651.63;;;11.30;68.18
76866;BME280;66647;52.124;5.416;2023-02-13T16:20:32;103641.41;;;11.26;68.38
76866;BME280;66647;52.124;5.416;2023-02-13T16:23:43;103642.50;;;11.25;68.59
76866;BME280;66647;52.124;5.416;2023-02-13T16:27:01;103644.94;;;11.21;68.65
76866;BME280;66647;52.124;5.416;2023-02-13T16:29:34;103643.25;;;11.15;68.41
76866;BME280;66647;52.124;5.416;2023-02-13T16:32:21;103645.34;;;11.03;69.14
76866;BME280;66647;52.124;5.416;2023-02-13T16:35:34;103641.72;;;10.97;69.36